Time;durP1;ratioP1;P1;durP2;ratioP2;P2;SDS_P1;SDS_P2;PMS_P1;PMS_P2;Temp;Humidity;BMP_temperature;BMP_pressure;BME280_temperature;BME280_humidity;BME280_pressure;Samples;Min_cycle;Max_cycle;Signal;HPM_P1;HPM_P2
2022/04/17 00:07:15;;;;;;;0.20;0.00;;;15.40;99.90;;;;;;25610766;23;20200;-85
2022/04/17 00:17:20;;;;;;;0.20;0.10;;;15.10;99.90;;;;;;25635769;23;20289;-79
2022/04/17 00:27:24;;;;;;;0.20;0.00;;;14.90;99.90;;;;;;25635585;23;20254;-80
2022/04/17 00:37:29;;;;;;;0.20;0.00;;;14.80;99.90;;;;;;25640514;23;20497;-83
2022/04/17 00:47:33;;;;;;;0.20;0.00;;;14.80;99.90;;;;;;25649681;23;20235;-79
2022/04/17 00:57:41;;;;;;;0.20;0.00;;;14.80;99.90;;;;;;25647882;23;20547;-80
2022/04/17 01:07:45;;;;;;;0.20;0.00;;;14.70;99.90;;;;;;25653827;23;20174;-81
2022/04/17 01:17:50;;;;;;;0.20;0.10;;;14.70;99.90;;;;;;25656721;23;20259;-78
2022/04/17 01:27:55;;;;;;;0.20;0.00;;;14.80;99.90;;;;;;25658154;23;20290;-78
2022/04/17 01:37:59;;;;;;;0.20;0.10;;;14.70;99.90;;;;;;25628767;23;20224;-77
2022/04/17 01:48:05;;;;;;;0.20;0.00;;;14.60;99.90;;;;;;25659068;23;20230;-79
2022/04/17 01:58:09;;;;;;;0.20;0.00;;;14.40;99.90;;;;;;25653146;23;20233;-81
2022/04/17 02:08:15;;;;;;;0.20;0.10;;;13.90;99.90;;;;;;25656926;23;20194;-82
2022/04/17 02:18:19;;;;;;;0.20;0.00;;;14.00;99.90;;;;;;25627960;23;20253;-82
2022/04/17 02:28:24;;;;;;;0.20;0.10;;;13.90;99.90;;;;;;25630155;23;20214;-79
2022/04/17 02:38:28;;;;;;;0.20;0.00;;;13.80;99.90;;;;;;25655420;23;20262;-72
2022/04/17 02:48:34;;;;;;;0.20;0.10;;;13.50;99.90;;;;;;25654277;23;20290;-72
2022/04/17 02:58:38;;;;;;;0.20;0.00;;;13.50;99.90;;;;;;25652981;23;20272;-72
2022/04/17 03:08:43;;;;;;;0.20;0.10;;;13.50;99.90;;;;;;25651070;23;20238;-70
2022/04/17 03:18:47;;;;;;;0.20;0.00;;;13.70;99.90;;;;;;25651455;23;20273;-73
2022/04/17 03:28:54;;;;;;;0.20;0.00;;;13.40;99.90;;;;;;25650943;23;20214;-73
2022/04/17 03:38:58;;;;;;;0.20;0.00;;;13.60;99.90;;;;;;25651570;23;20182;-72
2022/04/17 03:49:03;;;;;;;0.20;0.10;;;13.40;99.90;;;;;;25649549;23;20185;-73
2022/04/17 03:59:07;;;;;;;0.20;0.10;;;13.20;99.90;;;;;;25651721;23;20225;-74
2022/04/17 04:09:12;;;;;;;0.20;0.00;;;13.00;99.90;;;;;;25649539;23;20186;-73
2022/04/17 04:19:16;;;;;;;0.20;0.10;;;13.00;99.90;;;;;;25648836;23;20277;-73
2022/04/17 04:29:21;;;;;;;0.20;0.00;;;13.20;99.90;;;;;;25650275;23;20224;-80
2022/04/17 04:39:26;;;;;;;0.20;0.00;;;13.20;99.90;;;;;;25654330;23;20458;-78
2022/04/17 04:49:31;;;;;;;0.20;0.10;;;13.00;99.90;;;;;;25659070;23;20181;-81
2022/04/17 04:59:35;;;;;;;0.20;0.10;;;12.80;99.90;;;;;;25659334;23;20236;-79
2022/04/17 05:09:40;;;;;;;0.20;0.10;;;13.00;99.90;;;;;;25656840;23;20170;-81
2022/04/17 05:19:44;;;;;;;0.20;0.00;;;13.20;99.90;;;;;;25630781;23;20205;-82
2022/04/17 05:29:49;;;;;;;0.20;0.10;;;13.00;99.90;;;;;;25657426;23;20262;-80
2022/04/17 05:39:53;;;;;;;0.20;0.00;;;13.20;99.90;;;;;;25657063;23;20572;-76
2022/04/17 05:49:59;;;;;;;0.20;0.10;;;13.30;99.90;;;;;;25657236;23;20455;-77
2022/04/17 06:00:09;;;;;;;0.20;0.10;;;13.30;99.90;;;;;;25672199;23;20213;-90
2022/04/17 06:10:15;;;;;;;0.20;0.00;;;13.60;99.90;;;;;;25631533;23;20242;-76
2022/04/17 06:20:19;;;;;;;0.20;0.00;;;14.30;99.90;;;;;;25653882;23;20213;-81
2022/04/17 06:30:24;;;;;;;0.20;0.00;;;15.00;99.90;;;;;;25656608;23;20189;-80
2022/04/17 06:40:30;;;;;;;0.20;0.10;;;15.70;99.90;;;;;;25653715;23;20188;-81
2022/04/17 06:50:35;;;;;;;0.20;0.10;;;16.40;99.90;;;;;;25654340;23;20170;-81
2022/04/17 07:00:39;;;;;;;0.20;0.00;;;16.70;99.90;;;;;;25629816;23;20488;-83
2022/04/17 07:10:44;;;;;;;0.20;0.10;;;17.10;99.90;;;;;;25630411;23;20224;-86
2022/04/17 07:20:48;;;;;;;0.20;0.10;;;17.20;99.90;;;;;;25644890;23;20190;-85
2022/04/17 07:30:53;;;;;;;0.20;0.10;;;17.40;99.90;;;;;;25532997;23;20182;-81
2022/04/17 07:40:58;;;;;;;0.20;0.00;;;17.60;99.90;;;;;;25502967;23;20167;-78
2022/04/17 07:51:03;;;;;;;0.20;0.10;;;17.80;99.90;;;;;;25526892;23;20226;-76
2022/04/17 08:01:11;;;;;;;0.20;0.03;;;18.10;99.90;;;;;;25499909;23;20225;-79
2022/04/17 08:11:16;;;;;;;0.20;0.10;;;17.90;99.90;;;;;;25499987;23;20183;-75
2022/04/17 08:21:20;;;;;;;0.20;0.10;;;18.30;99.90;;;;;;25506700;23;20271;-77
2022/04/17 08:31:26;;;;;;;0.20;0.10;;;18.70;99.90;;;;;;25531218;23;20262;-74
2022/04/17 08:41:33;;;;;;;0.40;0.40;;;18.50;99.90;;;;;;25508682;23;20185;-74
2022/04/17 08:51:39;;;;;;;0.20;0.10;;;18.60;99.90;;;;;;25506321;23;20206;-76
2022/04/17 09:01:42;;;;;;;0.20;0.10;;;18.50;99.90;;;;;;25529002;23;20190;-73
2022/04/17 09:11:55;;;;;;;0.20;0.10;;;18.80;99.90;;;;;;25530597;23;20581;-74
2022/04/17 09:22:01;;;;;;;0.20;0.00;;;18.90;99.90;;;;;;25506150;23;20261;-74
2022/04/17 09:32:07;;;;;;;0.20;0.00;;;19.40;99.90;;;;;;25501406;23;20213;-75
2022/04/17 09:42:11;;;;;;;0.20;0.00;;;20.40;99.90;;;;;;25502841;23;20255;-73
2022/04/17 09:52:19;;;;;;;0.20;0.07;;;20.30;99.90;;;;;;25528207;23;20187;-74
2022/04/17 10:02:25;;;;;;;0.20;0.10;;;20.70;99.90;;;;;;25528847;23;20293;-74
2022/04/17 10:12:30;;;;;;;0.20;0.10;;;21.10;99.90;;;;;;25474857;23;20195;-75
2022/04/17 10:22:36;;;;;;;0.20;0.10;;;21.10;99.90;;;;;;25500636;23;20218;-71
2022/04/17 10:33:33;;;;;;;0.20;0.10;;;21.60;99.90;;;;;;25527931;23;20246;-72
2022/04/17 10:43:58;;;;;;;0.40;0.40;;;21.10;99.90;;;;;;25488190;23;20282;-72
2022/04/17 10:54:06;;;;;;;0.20;0.00;;;20.80;99.90;;;;;;25499655;23;20210;-78
2022/04/17 11:04:18;;;;;;;0.20;0.00;;;21.40;99.90;;;;;;25526951;23;20411;-75
2022/04/17 11:14:24;;;;;;;0.20;0.10;;;22.20;99.90;;;;;;25497507;23;20205;-77
2022/04/17 11:24:49;;;;;;;0.20;0.10;;;22.70;99.90;;;;;;25524583;23;20210;-78
2022/04/17 11:34:54;;;;;;;0.20;0.00;;;22.90;99.90;;;;;;25497307;23;20226;-71
2022/04/17 11:45:02;;;;;;;0.20;0.00;;;22.90;99.90;;;;;;25471856;23;20175;-73
2022/04/17 11:55:07;;;;;;;0.20;0.00;;;23.90;99.90;;;;;;25521211;23;20255;-69
2022/04/17 12:05:13;;;;;;;0.20;0.00;;;24.80;99.90;;;;;;25524457;23;20198;-78
2022/04/17 12:15:17;;;;;;;0.20;0.00;;;25.20;99.90;;;;;;25521601;23;20191;-74
2022/04/17 16:32:11;;;;;;;0.20;0.10;;;20.60;99.90;;;;;;25513595;23;20206;-73
2022/04/17 16:42:14;;;;;;;0.20;0.20;;;20.40;99.90;;;;;;25500226;23;20174;-73
2022/04/17 16:52:20;;;;;;;0.20;0.00;;;20.60;99.90;;;;;;25523102;23;20193;-76
2022/04/17 17:02:23;;;;;;;0.20;0.10;;;20.10;99.90;;;;;;25524752;23;20209;-74
2022/04/17 17:12:29;;;;;;;0.20;0.10;;;20.70;99.90;;;;;;25525355;23;20190;-75
2022/04/17 17:22:32;;;;;;;0.20;0.10;;;20.40;99.90;;;;;;25525891;23;20206;-75
2022/04/17 17:32:37;;;;;;;0.20;0.10;;;21.30;99.90;;;;;;25522606;23;20211;-75
2022/04/17 17:42:42;;;;;;;0.20;0.10;;;19.60;99.90;;;;;;25521882;23;20171;-75
2022/04/17 17:52:49;;;;;;;0.20;0.10;;;19.70;99.90;;;;;;25526051;23;20198;-74
2022/04/17 18:02:53;;;;;;;0.20;0.10;;;19.30;99.90;;;;;;25520949;23;20235;-75
2022/04/17 18:23:20;;;;;;;0.20;0.10;;;18.60;99.90;;;;;;25534184;23;20162;-76
2022/04/17 18:33:26;;;;;;;0.20;0.10;;;18.30;99.90;;;;;;25530595;23;20202;-79
2022/04/17 18:43:30;;;;;;;0.20;0.10;;;18.00;99.90;;;;;;25538428;23;20159;-81
2022/04/17 18:53:36;;;;;;;0.20;0.10;;;17.50;99.90;;;;;;25506210;23;20183;-72
2022/04/17 19:03:40;;;;;;;0.20;0.10;;;17.40;99.90;;;;;;25530029;23;20191;-73
2022/04/17 19:14:01;;;;;;;0.20;0.10;;;17.10;99.90;;;;;;25528521;23;20194;-73
2022/04/17 19:24:06;;;;;;;0.20;0.10;;;16.70;99.90;;;;;;25528028;23;20163;-72
2022/04/17 19:44:33;;;;;;;0.20;0.10;;;16.20;99.90;;;;;;25524174;23;20178;-73
2022/04/17 19:54:40;;;;;;;0.20;0.00;;;16.10;99.90;;;;;;25531387;23;21031;-73
2022/04/17 20:04:43;;;;;;;0.20;0.00;;;15.90;99.90;;;;;;25529623;23;20241;-74
2022/04/17 20:14:52;;;;;;;0.20;0.10;;;15.70;99.90;;;;;;25531213;23;20186;-72
2022/04/17 20:24:56;;;;;;;0.20;0.00;;;15.70;99.90;;;;;;25527555;23;20178;-71
2022/04/17 20:35:01;;;;;;;0.20;0.10;;;15.50;99.90;;;;;;25521860;23;20217;-75
2022/04/17 20:55:30;;;;;;;0.20;0.00;;;15.10;99.90;;;;;;25521858;23;20289;-76
2022/04/17 21:05:34;;;;;;;0.20;0.13;;;15.10;99.90;;;;;;25525495;23;20190;-76
2022/04/17 21:15:40;;;;;;;0.20;0.03;;;14.90;99.90;;;;;;25510218;23;20206;-78
2022/04/17 21:25:44;;;;;;;0.20;0.07;;;14.70;99.90;;;;;;25519494;23;20214;-75
2022/04/17 21:35:49;;;;;;;0.20;0.10;;;14.70;99.90;;;;;;25517110;23;20270;-78
2022/04/17 21:45:53;;;;;;;0.20;0.10;;;14.70;99.90;;;;;;25520553;23;20230;-80
2022/04/17 21:55:58;;;;;;;0.20;0.00;;;14.50;99.90;;;;;;25517038;23;20191;-75
2022/04/17 22:06:03;;;;;;;0.20;0.10;;;14.30;99.90;;;;;;25491072;23;21073;-74
2022/04/17 22:16:08;;;;;;;0.20;0.10;;;14.40;99.90;;;;;;25492424;23;20195;-73
2022/04/17 22:26:12;;;;;;;0.20;0.10;;;14.10;99.90;;;;;;25516066;23;20162;-73
2022/04/17 22:36:17;;;;;;;0.20;0.10;;;14.00;99.90;;;;;;25513844;23;20742;-80
2022/04/17 22:46:21;;;;;;;0.20;0.10;;;14.00;99.90;;;;;;25491638;23;20457;-81
2022/04/17 22:56:26;;;;;;;0.20;0.10;;;13.80;99.90;;;;;;25515424;23;20234;-79
2022/04/17 23:06:32;;;;;;;0.20;0.10;;;13.70;99.90;;;;;;25514124;23;20155;-72
2022/04/17 23:16:37;;;;;;;0.20;0.00;;;13.80;99.90;;;;;;25512518;23;20218;-72
2022/04/17 23:26:41;;;;;;;0.30;0.30;;;13.90;99.90;;;;;;25512762;23;20170;-76
2022/04/17 23:36:46;;;;;;;0.20;0.10;;;14.60;99.90;;;;;;25514524;23;20298;-74
2022/04/17 23:46:50;;;;;;;0.20;0.10;;;14.60;99.90;;;;;;25514960;23;20235;-74
2022/04/17 23:56:55;;;;;;;0.20;0.10;;;14.70;99.90;;;;;;25513534;23;20275;-74
